createdAt,value
2022-10-19T00:05:49.524Z,11.20
2022-10-19T00:11:51.609Z,10.70
2022-10-19T00:17:53.246Z,10.80
2022-10-19T00:23:54.990Z,10.70
2022-10-19T00:29:56.694Z,10.70
2022-10-19T00:35:58.651Z,10.50
2022-10-19T00:42:01.468Z,10.60
2022-10-19T00:48:03.241Z,10.60
2022-10-19T00:54:06.248Z,10.50
2022-10-19T01:00:09.165Z,10.50
2022-10-19T01:06:12.242Z,10.30
2022-10-19T01:12:17.160Z,10.30
2022-10-19T01:18:27.515Z,10.20
2022-10-19T01:24:48.281Z,10.20
2022-10-19T01:30:56.290Z,10.10
2022-10-19T01:37:02.652Z,10.10
2022-10-19T01:43:10.209Z,10.00
2022-10-19T01:49:32.492Z,10.00
2022-10-19T01:55:34.828Z,9.80
2022-10-19T02:01:38.645Z,9.80
2022-10-19T02:07:42.401Z,9.90
2022-10-19T02:13:45.167Z,9.80
2022-10-19T02:19:46.926Z,9.50
2022-10-19T02:25:48.672Z,9.30
2022-10-19T02:31:51.316Z,9.40
2022-10-19T02:37:53.191Z,9.70
2022-10-19T02:43:59.215Z,9.60
2022-10-19T02:50:01.271Z,9.80
2022-10-19T02:56:02.979Z,9.80
2022-10-19T03:02:04.794Z,9.80
2022-10-19T03:08:06.466Z,10.10
2022-10-19T03:14:08.125Z,10.20
2022-10-19T03:20:10.481Z,10.30
2022-10-19T03:26:14.016Z,10.30
2022-10-19T03:32:16.391Z,10.40
2022-10-19T03:38:18.037Z,10.40
2022-10-19T03:44:19.697Z,10.50
2022-10-19T03:50:21.416Z,10.50
2022-10-19T03:56:24.153Z,10.40
2022-10-19T04:02:25.889Z,10.40
2022-10-19T04:08:27.523Z,10.20
2022-10-19T04:14:39.051Z,10.20
2022-10-19T04:20:42.961Z,10.20
2022-10-19T04:26:46.262Z,10.20
2022-10-19T04:32:47.952Z,10.30
2022-10-19T04:38:49.590Z,10.30
2022-10-19T04:44:51.319Z,10.40
2022-10-19T04:50:54.447Z,10.20
2022-10-19T04:56:56.297Z,10.40
2022-10-19T05:02:57.983Z,10.60
2022-10-19T05:09:00.113Z,10.50
2022-10-19T05:15:02.142Z,10.60
2022-10-19T05:21:11.555Z,10.50
2022-10-19T05:27:13.261Z,10.50
2022-10-19T05:33:15.105Z,10.50
2022-10-19T05:39:17.337Z,10.30
2022-10-19T05:45:19.223Z,10.30
2022-10-19T05:51:21.431Z,10.10
2022-10-19T05:57:23.145Z,10.10
2022-10-19T06:03:26.310Z,10.30
2022-10-19T06:09:28.153Z,10.30
2022-10-19T06:15:32.511Z,10.30
2022-10-19T06:21:34.777Z,10.30
2022-10-19T06:27:36.736Z,10.30
2022-10-19T06:33:39.587Z,10.30
2022-10-19T06:39:41.303Z,10.40
2022-10-19T06:45:43.324Z,10.50
2022-10-19T06:51:45.198Z,10.60
2022-10-19T06:57:47.013Z,10.60
2022-10-19T07:03:50.115Z,10.60
2022-10-19T07:09:53.516Z,10.50
2022-10-19T07:15:58.731Z,10.60
2022-10-19T07:22:01.625Z,10.70
2022-10-19T07:28:03.493Z,10.80
2022-10-19T07:34:05.375Z,10.80
2022-10-19T07:40:07.428Z,10.90
2022-10-19T07:46:11.356Z,10.90
2022-10-19T07:52:13.215Z,10.80
2022-10-19T07:58:15.226Z,11.00
2022-10-19T08:10:39.155Z,11.10
2022-10-19T08:16:41.739Z,11.20
2022-10-19T08:22:45.202Z,11.20
2022-10-19T08:28:47.228Z,11.20
2022-10-19T08:34:49.116Z,11.20
2022-10-19T08:40:51.076Z,11.30
2022-10-19T08:46:52.914Z,11.40
2022-10-19T08:53:02.426Z,11.60
2022-10-19T08:59:23.119Z,11.80
2022-10-19T09:05:32.476Z,11.70
2022-10-19T09:11:39.079Z,11.70
2022-10-19T09:17:41.233Z,11.90
2022-10-19T09:24:01.427Z,12.00
2022-10-19T09:30:23.229Z,12.10
2022-10-19T09:36:49.462Z,12.30
2022-10-19T09:42:57.060Z,12.20
2022-10-19T09:49:00.439Z,12.00
2022-10-19T09:55:04.379Z,12.00
2022-10-19T10:01:06.191Z,11.80
2022-10-19T10:07:14.124Z,11.70
2022-10-19T10:13:17.934Z,11.60
2022-10-19T10:19:21.493Z,11.70
2022-10-19T10:25:35.075Z,11.80
2022-10-19T10:31:36.948Z,11.90
2022-10-19T10:37:43.195Z,11.80
2022-10-19T10:44:06.930Z,12.00
2022-10-19T10:50:16.862Z,12.10
2022-10-19T10:56:29.205Z,12.40
2022-10-19T11:02:49.327Z,12.50
2022-10-19T11:08:56.984Z,12.20
2022-10-19T11:15:14.111Z,12.40
2022-10-19T11:21:20.128Z,13.30
2022-10-19T11:27:27.990Z,13.60
2022-10-19T11:40:03.085Z,12.80
2022-10-19T11:46:10.032Z,12.80
2022-10-19T11:52:24.967Z,13.10
2022-10-19T11:58:35.341Z,12.80
2022-10-19T12:04:37.070Z,12.80
2022-10-19T12:10:43.088Z,12.80
2022-10-19T12:16:47.163Z,12.70
2022-10-19T12:22:49.629Z,12.60
2022-10-19T12:28:56.226Z,12.50
2022-10-19T12:35:08.591Z,12.50
2022-10-19T12:41:23.868Z,12.50
2022-10-19T12:47:26.003Z,12.70
2022-10-19T12:53:31.099Z,12.70
2022-10-19T12:59:37.023Z,12.80
2022-10-19T13:05:38.981Z,12.90
2022-10-19T13:12:00.748Z,12.80
2022-10-19T13:18:03.061Z,12.50
2022-10-19T13:24:25.915Z,12.40
2022-10-19T13:30:37.137Z,12.40
2022-10-19T13:36:40.299Z,12.20
2022-10-19T13:42:42.977Z,12.20
2022-10-19T13:48:44.779Z,12.40
2022-10-19T13:55:03.458Z,12.30
2022-10-19T14:01:05.189Z,12.20
2022-10-19T14:07:16.489Z,12.30
2022-10-19T14:13:18.349Z,12.20
2022-10-19T14:19:27.184Z,12.20
2022-10-19T14:25:29.483Z,12.30
2022-10-19T14:31:33.399Z,12.20
2022-10-19T14:37:36.655Z,12.10
2022-10-19T14:43:38.712Z,12.10
2022-10-19T14:49:40.495Z,12.20
2022-10-19T14:55:42.434Z,12.10
2022-10-19T15:01:49.169Z,12.20
2022-10-19T15:07:51.181Z,12.20
2022-10-19T15:14:09.758Z,12.10
2022-10-19T15:20:23.044Z,12.10
2022-10-19T15:26:24.707Z,12.10
2022-10-19T15:32:30.444Z,12.10
2022-10-19T15:38:33.360Z,12.00
2022-10-19T15:44:42.284Z,11.80
2022-10-19T15:50:45.609Z,11.60
2022-10-19T15:56:50.684Z,11.60
2022-10-19T16:02:52.420Z,11.40
2022-10-19T16:08:54.304Z,11.40
2022-10-19T16:14:56.276Z,11.40
2022-10-19T16:20:58.387Z,11.50
2022-10-19T16:27:00.103Z,11.30
2022-10-19T16:33:01.980Z,11.10
2022-10-19T16:39:04.956Z,11.10
2022-10-19T16:45:07.077Z,11.10
2022-10-19T16:51:10.359Z,10.90
2022-10-19T16:57:13.172Z,10.80
2022-10-19T17:03:14.860Z,10.80
2022-10-19T17:09:40.850Z,10.70
2022-10-19T17:15:43.057Z,10.60
2022-10-19T17:21:45.359Z,10.60
2022-10-19T17:27:50.363Z,10.50
2022-10-19T17:33:52.516Z,10.20
2022-10-19T17:39:54.171Z,10.20
2022-10-19T17:45:59.687Z,10.20
2022-10-19T17:52:01.382Z,10.10
2022-10-19T17:58:03.042Z,10.00
2022-10-19T18:04:05.049Z,9.90
2022-10-19T18:10:06.996Z,9.90
2022-10-19T18:16:10.359Z,10.50
2022-10-19T18:22:12.304Z,10.50
2022-10-19T18:28:14.084Z,10.40
2022-10-19T18:34:16.084Z,10.20
2022-10-19T18:40:17.807Z,9.80
2022-10-19T18:46:20.589Z,9.60
2022-10-19T18:52:22.295Z,9.50
2022-10-19T18:58:24.557Z,9.50
2022-10-19T19:04:26.291Z,9.70
2022-10-19T19:10:28.000Z,9.90
2022-10-19T19:16:32.261Z,9.80
2022-10-19T19:22:34.492Z,9.40
2022-10-19T19:28:39.261Z,9.40
2022-10-19T19:34:43.243Z,9.50
2022-10-19T19:40:45.733Z,9.50
2022-10-19T19:46:47.399Z,9.40
2022-10-19T19:52:49.196Z,9.50
2022-10-19T19:58:54.257Z,9.50
2022-10-19T20:04:56.193Z,9.80
2022-10-19T20:11:01.232Z,9.70
2022-10-19T20:17:02.979Z,9.50
2022-10-19T20:23:04.654Z,9.50
2022-10-19T20:29:06.664Z,9.20
2022-10-19T20:35:08.683Z,9.20
2022-10-19T20:41:10.458Z,9.50
2022-10-19T20:47:12.348Z,9.50
2022-10-19T20:53:14.187Z,9.30
2022-10-19T20:59:17.601Z,9.40
2022-10-19T21:05:19.226Z,9.40
2022-10-19T21:11:22.168Z,9.40
2022-10-19T21:17:23.978Z,9.10
2022-10-19T21:23:25.861Z,9.10
2022-10-19T21:29:28.023Z,9.10
2022-10-19T21:35:29.949Z,9.00
2022-10-19T21:41:32.482Z,9.20
2022-10-19T21:47:36.156Z,9.10
2022-10-19T21:53:38.182Z,9.30
2022-10-19T21:59:39.898Z,9.30
2022-10-19T22:05:49.324Z,9.30
2022-10-19T22:11:51.152Z,9.30
2022-10-19T22:17:53.299Z,9.10
2022-10-19T22:23:56.403Z,8.70
2022-10-19T22:29:58.476Z,8.40
2022-10-19T22:36:00.938Z,8.40
2022-10-19T22:42:02.666Z,8.40
2022-10-19T22:48:04.641Z,8.50
2022-10-19T22:54:06.483Z,8.50
2022-10-19T23:00:08.486Z,8.80
2022-10-19T23:06:12.161Z,8.90
2022-10-19T23:12:13.977Z,8.50
2022-10-19T23:18:15.920Z,8.80
2022-10-19T23:24:17.724Z,8.90
2022-10-19T23:30:19.442Z,8.70
2022-10-19T23:36:28.804Z,8.60
2022-10-19T23:42:30.431Z,8.50
2022-10-19T23:48:32.152Z,8.30
2022-10-19T23:54:33.934Z,8.20
